PAC73 VHHH-KLAX
Flight info
| Callsign | PAC73 |
|---|---|
| Flight time | N/A |
| Altitude | 31000 |
| Route | DALOL V631 ENVAR M750 MELEN/N0493F330 M750 MUKEP Y891 OVSUN/N0490F320 Y893 IGMIS/N0490F330 Y57 POROT OTR11 LEPKI DCT 40N160E/N0486F350 4139N16500E 43N170E 46N180E 46N170W/N0477F370 45N160W 43N150W 41N140W 39N130W/N0479F390 DCT DACEM DCT PAINT DCT PIRAT DCT BURGL IRNMN2 |
| Aircraft | B744/H-SDE3FGHIM1M2RWXY/LB1 |
Departure
| Time | N/A |
|---|---|
| Airport | Hong Kong International Airport (VHHH) |
Arrival
| Time | 2026-04-26 00:27 |
|---|---|
| Airport | Los Angeles International Airport (KLAX) |
| Time | Latitude | Longitude | Altitude | Speed | Heading |
|---|---|---|---|---|---|
| 2026-04-25 22:19 | 41.35482 | -136.63737 | 39268 ft | 527 kts | 107° |
| 2026-04-25 22:19 | 41.33529 | -136.54390 | 39267 ft | 522 kts | 107° |
| 2026-04-25 22:20 | 41.31568 | -136.45047 | 39261 ft | 524 kts | 107° |
| 2026-04-25 22:20 | 41.29602 | -136.35722 | 39258 ft | 522 kts | 107° |
| 2026-04-25 22:21 | 41.27626 | -136.26390 | 39256 ft | 526 kts | 107° |
| 2026-04-25 22:21 | 41.25641 | -136.17055 | 39250 ft | 526 kts | 107° |
| 2026-04-25 22:22 | 41.23648 | -136.07727 | 39251 ft | 526 kts | 107° |
| 2026-04-25 22:22 | 41.21648 | -135.98403 | 39247 ft | 524 kts | 107° |
| 2026-04-25 22:23 | 41.19640 | -135.89082 | 39244 ft | 524 kts | 108° |
| 2026-04-25 22:23 | 41.17623 | -135.79766 | 39238 ft | 523 kts | 108° |
| 2026-04-25 22:24 | 41.15612 | -135.70516 | 39237 ft | 525 kts | 108° |
| 2026-04-25 22:24 | 41.13581 | -135.61210 | 39235 ft | 525 kts | 108° |
| 2026-04-25 22:25 | 41.11541 | -135.51908 | 39227 ft | 525 kts | 108° |
| 2026-04-25 22:25 | 41.09495 | -135.42614 | 39224 ft | 525 kts | 108° |
| 2026-04-25 22:26 | 41.07440 | -135.33321 | 39226 ft | 525 kts | 108° |
| 2026-04-25 22:26 | 41.05379 | -135.24038 | 39223 ft | 524 kts | 108° |
| 2026-04-25 22:27 | 41.03306 | -135.14745 | 39222 ft | 526 kts | 108° |
| 2026-04-25 22:27 | 41.01229 | -135.05469 | 39220 ft | 526 kts | 108° |
| 2026-04-25 22:28 | 40.99015 | -134.96254 | 39211 ft | 523 kts | 111° |
| 2026-04-25 22:28 | 40.96540 | -134.87184 | 39206 ft | 523 kts | 112° |
| 2026-04-25 22:29 | 40.94040 | -134.78125 | 39204 ft | 524 kts | 112° |
| 2026-04-25 22:29 | 40.91565 | -134.69131 | 39199 ft | 523 kts | 112° |
| 2026-04-25 22:30 | 40.87823 | -134.55556 | 39194 ft | 524 kts | 112° |
| 2026-04-25 22:30 | 40.85727 | -134.47982 | 39194 ft | 524 kts | 112° |
| 2026-04-25 22:31 | 40.82813 | -134.37490 | 39187 ft | 522 kts | 112° |
| 2026-04-25 22:31 | 40.80301 | -134.28482 | 39185 ft | 523 kts | 112° |
| 2026-04-25 22:32 | 40.77782 | -134.19481 | 39180 ft | 522 kts | 112° |
| 2026-04-25 22:32 | 40.75259 | -134.10498 | 39178 ft | 521 kts | 112° |
| 2026-04-25 22:33 | 40.72730 | -134.01522 | 39175 ft | 521 kts | 112° |
| 2026-04-25 22:33 | 40.70195 | -133.92558 | 39169 ft | 520 kts | 112° |
| 2026-04-25 22:34 | 40.67656 | -133.83610 | 39168 ft | 519 kts | 112° |
| 2026-04-25 22:34 | 40.65106 | -133.74659 | 39169 ft | 520 kts | 112° |
| 2026-04-25 22:35 | 40.62550 | -133.65717 | 39165 ft | 523 kts | 112° |
| 2026-04-25 22:35 | 40.59986 | -133.56775 | 39164 ft | 521 kts | 112° |
| 2026-04-25 22:36 | 40.57415 | -133.47842 | 39161 ft | 523 kts | 113° |
| 2026-04-25 22:36 | 40.54837 | -133.38914 | 39158 ft | 521 kts | 113° |
| 2026-04-25 22:37 | 40.52251 | -133.29991 | 39157 ft | 521 kts | 113° |
| 2026-04-25 22:37 | 40.49660 | -133.21080 | 39151 ft | 521 kts | 113° |
| 2026-04-25 22:38 | 40.47062 | -133.12171 | 39149 ft | 523 kts | 113° |
| 2026-04-25 22:38 | 40.44455 | -133.03268 | 39144 ft | 524 kts | 113° |
| 2026-04-25 22:39 | 40.41843 | -132.94373 | 39142 ft | 523 kts | 113° |
| 2026-04-25 22:39 | 40.39223 | -132.85483 | 39133 ft | 522 kts | 113° |
| 2026-04-25 22:40 | 40.36615 | -132.76665 | 39132 ft | 522 kts | 113° |
| 2026-04-25 22:40 | 40.33981 | -132.67788 | 39148 ft | 524 kts | 113° |
| 2026-04-25 22:41 | 40.31342 | -132.58924 | 39141 ft | 522 kts | 114° |
| 2026-04-25 22:41 | 40.28702 | -132.50086 | 39138 ft | 520 kts | 114° |
| 2026-04-25 22:42 | 40.26058 | -132.41262 | 39140 ft | 522 kts | 114° |
| 2026-04-25 22:42 | 40.23409 | -132.32453 | 39138 ft | 519 kts | 114° |
| 2026-04-25 22:43 | 40.20752 | -132.23646 | 39116 ft | 519 kts | 114° |
| 2026-04-25 22:43 | 40.18089 | -132.14846 | 39133 ft | 521 kts | 114° |
| 2026-04-25 22:44 | 40.15416 | -132.06046 | 39128 ft | 520 kts | 114° |
| 2026-04-25 22:44 | 40.12739 | -131.97258 | 39112 ft | 520 kts | 114° |
| 2026-04-25 22:45 | 40.10057 | -131.88481 | 39111 ft | 519 kts | 114° |
| 2026-04-25 22:45 | 40.07365 | -131.79706 | 39108 ft | 520 kts | 114° |
| 2026-04-25 22:46 | 40.04668 | -131.70940 | 39106 ft | 520 kts | 114° |
| 2026-04-25 22:46 | 40.01963 | -131.62177 | 39104 ft | 522 kts | 114° |
| 2026-04-25 22:47 | 39.99272 | -131.53486 | 39101 ft | 520 kts | 114° |
| 2026-04-25 22:47 | 39.96554 | -131.44735 | 39099 ft | 521 kts | 114° |
| 2026-04-25 22:48 | 39.93830 | -131.35995 | 39101 ft | 521 kts | 114° |
| 2026-04-25 22:48 | 39.91099 | -131.27260 | 39094 ft | 521 kts | 114° |
| 2026-04-25 22:49 | 39.88362 | -131.18534 | 39091 ft | 520 kts | 115° |
| 2026-04-25 22:49 | 39.85619 | -131.09815 | 39091 ft | 520 kts | 115° |
| 2026-04-25 22:50 | 39.82868 | -131.01100 | 39087 ft | 521 kts | 115° |
| 2026-04-25 22:50 | 39.80112 | -130.92392 | 39088 ft | 519 kts | 115° |
| 2026-04-25 22:51 | 39.77351 | -130.83696 | 39080 ft | 521 kts | 115° |
| 2026-04-25 22:51 | 39.74592 | -130.75033 | 39072 ft | 520 kts | 115° |
| 2026-04-25 22:52 | 39.71825 | -130.66386 | 39079 ft | 518 kts | 115° |
| 2026-04-25 22:52 | 39.69521 | -130.59202 | 39072 ft | 519 kts | 115° |
| 2026-04-25 22:53 | 39.66289 | -130.49152 | 39077 ft | 519 kts | 115° |
| 2026-04-25 22:53 | 39.63503 | -130.40516 | 39070 ft | 517 kts | 115° |
| 2026-04-25 22:54 | 39.60712 | -130.31892 | 39066 ft | 518 kts | 115° |
| 2026-04-25 22:54 | 39.57917 | -130.23284 | 39059 ft | 519 kts | 115° |
| 2026-04-25 22:55 | 39.55118 | -130.14686 | 39057 ft | 519 kts | 115° |
| 2026-04-25 22:55 | 39.52312 | -130.06097 | 39058 ft | 518 kts | 115° |
| 2026-04-25 22:56 | 39.49502 | -129.97518 | 39058 ft | 517 kts | 116° |
| 2026-04-25 22:56 | 39.46686 | -129.88948 | 39061 ft | 519 kts | 116° |
| 2026-04-25 22:57 | 39.43862 | -129.80385 | 39052 ft | 515 kts | 116° |
| 2026-04-25 22:57 | 39.41031 | -129.71822 | 39051 ft | 518 kts | 116° |
| 2026-04-25 22:58 | 39.38194 | -129.63268 | 39053 ft | 518 kts | 116° |
| 2026-04-25 22:58 | 39.35830 | -129.56160 | 39046 ft | 517 kts | 116° |
| 2026-04-25 22:59 | 39.32979 | -129.47610 | 39043 ft | 517 kts | 116° |
| 2026-04-25 22:59 | 39.29656 | -129.37679 | 39038 ft | 517 kts | 116° |
| 2026-04-25 23:00 | 39.26793 | -129.29147 | 39040 ft | 516 kts | 116° |
| 2026-04-25 23:00 | 39.24387 | -129.21998 | 39036 ft | 518 kts | 116° |
| 2026-04-25 23:01 | 39.21530 | -129.13534 | 39034 ft | 518 kts | 116° |
| 2026-04-25 23:01 | 39.18649 | -129.05023 | 39033 ft | 516 kts | 116° |
| 2026-04-25 23:02 | 39.15761 | -128.96514 | 39032 ft | 517 kts | 116° |
| 2026-04-25 23:02 | 39.12867 | -128.88015 | 39033 ft | 518 kts | 116° |
| 2026-04-25 23:03 | 39.09966 | -128.79522 | 39029 ft | 520 kts | 116° |
| 2026-04-25 23:03 | 39.07059 | -128.71036 | 39025 ft | 517 kts | 116° |
| 2026-04-25 23:04 | 39.04147 | -128.62558 | 39020 ft | 517 kts | 116° |
| 2026-04-25 23:04 | 39.01230 | -128.54092 | 39018 ft | 516 kts | 116° |
| 2026-04-25 23:05 | 38.98313 | -128.45649 | 39017 ft | 516 kts | 117° |
| 2026-04-25 23:05 | 38.95387 | -128.37207 | 39013 ft | 517 kts | 117° |
| 2026-04-25 23:06 | 38.92460 | -128.28785 | 39007 ft | 518 kts | 117° |
| 2026-04-25 23:06 | 38.89547 | -128.20428 | 39008 ft | 516 kts | 117° |
| 2026-04-25 23:07 | 38.86609 | -128.12023 | 39007 ft | 516 kts | 117° |
| 2026-04-25 23:07 | 38.83664 | -128.03623 | 39005 ft | 518 kts | 117° |
| 2026-04-25 23:08 | 38.80713 | -127.95228 | 39001 ft | 516 kts | 117° |
| 2026-04-25 23:08 | 38.77757 | -127.86843 | 39003 ft | 516 kts | 117° |
| 2026-04-25 23:09 | 38.74791 | -127.78458 | 39006 ft | 517 kts | 117° |
| 2026-04-25 23:09 | 38.71817 | -127.70075 | 39000 ft | 517 kts | 117° |
| 2026-04-25 23:10 | 38.68842 | -127.61704 | 38994 ft | 515 kts | 117° |
| 2026-04-25 23:10 | 38.65865 | -127.53356 | 38992 ft | 513 kts | 117° |
| 2026-04-25 23:11 | 38.62882 | -127.45014 | 38990 ft | 517 kts | 117° |
| 2026-04-25 23:11 | 38.59896 | -127.36687 | 38989 ft | 515 kts | 117° |
| 2026-04-25 23:12 | 38.56903 | -127.28365 | 38983 ft | 517 kts | 117° |
| 2026-04-25 23:12 | 38.53925 | -127.20107 | 38988 ft | 517 kts | 117° |
| 2026-04-25 23:13 | 38.50919 | -127.11796 | 38986 ft | 515 kts | 117° |
| 2026-04-25 23:13 | 38.47908 | -127.03492 | 38986 ft | 516 kts | 117° |
| 2026-04-25 23:14 | 38.44365 | -126.95592 | 38983 ft | 512 kts | 127° |
| 2026-04-25 23:14 | 38.40365 | -126.88108 | 38980 ft | 510 kts | 128° |
| 2026-04-25 23:15 | 38.36314 | -126.80678 | 38979 ft | 511 kts | 128° |
| 2026-04-25 23:15 | 38.32290 | -126.73230 | 38978 ft | 511 kts | 128° |
| 2026-04-25 23:16 | 38.28273 | -126.65770 | 38976 ft | 509 kts | 128° |
| 2026-04-25 23:16 | 38.24253 | -126.58319 | 38974 ft | 512 kts | 128° |
| 2026-04-25 23:17 | 38.20228 | -126.50879 | 38971 ft | 511 kts | 128° |
| 2026-04-25 23:17 | 38.16196 | -126.43443 | 38970 ft | 511 kts | 128° |
| 2026-04-25 23:18 | 38.12161 | -126.36019 | 38968 ft | 512 kts | 128° |
| 2026-04-25 23:18 | 38.08121 | -126.28604 | 38964 ft | 511 kts | 128° |
| 2026-04-25 23:19 | 38.04078 | -126.21200 | 38961 ft | 510 kts | 128° |
| 2026-04-25 23:19 | 38.00030 | -126.13804 | 38964 ft | 509 kts | 128° |
| 2026-04-25 23:20 | 37.96002 | -126.06459 | 38959 ft | 511 kts | 128° |
| 2026-04-25 23:20 | 37.91943 | -125.99076 | 38957 ft | 510 kts | 128° |
| 2026-04-25 23:21 | 37.87883 | -125.91704 | 38955 ft | 510 kts | 128° |
| 2026-04-25 23:21 | 37.83840 | -125.84330 | 38957 ft | 510 kts | 126° |
| 2026-04-25 23:22 | 37.80535 | -125.76322 | 38958 ft | 511 kts | 120° |
| 2026-04-25 23:23 | 37.75734 | -125.64194 | 38949 ft | 513 kts | 120° |
| 2026-04-25 23:23 | 37.72537 | -125.56111 | 38954 ft | 514 kts | 120° |
| 2026-04-25 23:24 | 37.69337 | -125.48047 | 38951 ft | 511 kts | 120° |
| 2026-04-25 23:24 | 37.66134 | -125.39994 | 38950 ft | 514 kts | 120° |
| 2026-04-25 23:25 | 37.62927 | -125.31955 | 38952 ft | 511 kts | 120° |
| 2026-04-25 23:25 | 37.59715 | -125.23922 | 38948 ft | 512 kts | 120° |
| 2026-04-25 23:26 | 37.56499 | -125.15902 | 38952 ft | 511 kts | 120° |
| 2026-04-25 23:26 | 37.53273 | -125.07876 | 38944 ft | 515 kts | 120° |
| 2026-04-25 23:27 | 37.50062 | -124.99905 | 38938 ft | 512 kts | 120° |
| 2026-04-25 23:27 | 37.46826 | -124.91894 | 38942 ft | 515 kts | 120° |
| 2026-04-25 23:28 | 37.43583 | -124.83888 | 38946 ft | 512 kts | 120° |
| 2026-04-25 23:28 | 37.40340 | -124.75901 | 38941 ft | 512 kts | 120° |
| 2026-04-25 23:29 | 37.37090 | -124.67918 | 38943 ft | 513 kts | 120° |
| 2026-04-25 23:29 | 37.33837 | -124.59946 | 38945 ft | 514 kts | 120° |
| 2026-04-25 23:30 | 37.30580 | -124.51984 | 38943 ft | 511 kts | 120° |
| 2026-04-25 23:30 | 37.27318 | -124.44030 | 38942 ft | 512 kts | 120° |
| 2026-04-25 23:31 | 37.24052 | -124.36085 | 38944 ft | 511 kts | 120° |
| 2026-04-25 23:31 | 37.20778 | -124.28144 | 38948 ft | 512 kts | 120° |
| 2026-04-25 23:32 | 37.17499 | -124.20208 | 38948 ft | 511 kts | 120° |
| 2026-04-25 23:32 | 37.14218 | -124.12287 | 38946 ft | 511 kts | 121° |
| 2026-04-25 23:33 | 37.10928 | -124.04365 | 38944 ft | 512 kts | 121° |
| 2026-04-25 23:33 | 37.07635 | -123.96453 | 39006 ft | 509 kts | 121° |
| 2026-04-25 23:33 | 37.05983 | -123.92493 | 39319 ft | 517 kts | 121° |
| 2026-04-25 23:34 | 37.04317 | -123.88510 | 39752 ft | 518 kts | 121° |
| 2026-04-25 23:34 | 37.02643 | -123.84513 | 40170 ft | 521 kts | 121° |
| 2026-04-25 23:34 | 37.00960 | -123.80497 | 40588 ft | 523 kts | 120° |
| 2026-04-25 23:34 | 36.99271 | -123.76471 | 41010 ft | 518 kts | 120° |
| 2026-04-25 23:35 | 36.97574 | -123.72427 | 41438 ft | 525 kts | 120° |
| 2026-04-25 23:35 | 36.95895 | -123.68431 | 41873 ft | 526 kts | 120° |
| 2026-04-25 23:35 | 36.94195 | -123.64388 | 42302 ft | 526 kts | 120° |
| 2026-04-25 23:35 | 36.92499 | -123.60349 | 42714 ft | 519 kts | 120° |
| 2026-04-25 23:36 | 36.90806 | -123.56311 | 42931 ft | 528 kts | 121° |
| 2026-04-25 23:36 | 36.87369 | -123.48177 | 42948 ft | 525 kts | 121° |
| 2026-04-25 23:37 | 36.83970 | -123.40151 | 42946 ft | 520 kts | 121° |
| 2026-04-25 23:37 | 36.80584 | -123.32190 | 42947 ft | 519 kts | 121° |
| 2026-04-25 23:38 | 36.77194 | -123.24232 | 42945 ft | 519 kts | 121° |
| 2026-04-25 23:38 | 36.73794 | -123.16267 | 42944 ft | 519 kts | 121° |
| 2026-04-25 23:39 | 36.70391 | -123.08311 | 42942 ft | 519 kts | 121° |
| 2026-04-25 23:39 | 36.66988 | -123.00374 | 42941 ft | 519 kts | 121° |
| 2026-04-25 23:40 | 36.63586 | -122.92457 | 42944 ft | 517 kts | 121° |
| 2026-04-25 23:40 | 36.60170 | -122.84533 | 42939 ft | 518 kts | 121° |
| 2026-04-25 23:41 | 36.56753 | -122.76621 | 42943 ft | 519 kts | 121° |
| 2026-04-25 23:41 | 36.53333 | -122.68723 | 42938 ft | 517 kts | 121° |
| 2026-04-25 23:42 | 36.49909 | -122.60834 | 42944 ft | 519 kts | 121° |
| 2026-04-25 23:42 | 36.46475 | -122.52943 | 42946 ft | 519 kts | 121° |
| 2026-04-25 23:43 | 36.43009 | -122.45073 | 42942 ft | 519 kts | 124° |
| 2026-04-25 23:43 | 36.38700 | -122.37992 | 42945 ft | 511 kts | 132° |
| 2026-04-25 23:44 | 36.34203 | -122.31101 | 42946 ft | 513 kts | 133° |
| 2026-04-25 23:44 | 36.29666 | -122.24290 | 42944 ft | 511 kts | 133° |
| 2026-04-25 23:45 | 36.25123 | -122.17495 | 42949 ft | 511 kts | 133° |
| 2026-04-25 23:45 | 36.21276 | -122.10147 | 42948 ft | 521 kts | 114° |
| 2026-04-25 23:46 | 36.18961 | -122.01598 | 42954 ft | 523 kts | 110° |
| 2026-04-25 23:46 | 36.16788 | -121.92991 | 42955 ft | 525 kts | 110° |
| 2026-04-25 23:47 | 36.14545 | -121.84434 | 42771 ft | 521 kts | 111° |
| 2026-04-25 23:47 | 36.13411 | -121.80186 | 42467 ft | 519 kts | 111° |
| 2026-04-25 23:47 | 36.12659 | -121.77384 | 42258 ft | 517 kts | 111° |
| 2026-04-25 23:47 | 36.11525 | -121.73163 | 41902 ft | 517 kts | 111° |
| 2026-04-25 23:48 | 36.10002 | -121.67506 | 41343 ft | 515 kts | 111° |
| 2026-04-25 23:48 | 36.09253 | -121.64721 | 40888 ft | 515 kts | 111° |
| 2026-04-25 23:48 | 36.08117 | -121.60504 | 40223 ft | 516 kts | 111° |
| 2026-04-25 23:48 | 36.06984 | -121.56304 | 39576 ft | 516 kts | 111° |
| 2026-04-25 23:49 | 36.05854 | -121.52121 | 39152 ft | 511 kts | 111° |
| 2026-04-25 23:49 | 36.04726 | -121.47963 | 38980 ft | 510 kts | 111° |
| 2026-04-25 23:49 | 36.03598 | -121.43803 | 38956 ft | 511 kts | 111° |
| 2026-04-25 23:50 | 36.01330 | -121.35454 | 38956 ft | 513 kts | 111° |
| 2026-04-25 23:50 | 35.99047 | -121.27073 | 38958 ft | 514 kts | 111° |
| 2026-04-25 23:51 | 35.96757 | -121.18697 | 38960 ft | 513 kts | 111° |
| 2026-04-25 23:51 | 35.94461 | -121.10325 | 38959 ft | 515 kts | 111° |
| 2026-04-25 23:52 | 35.92162 | -121.01969 | 38961 ft | 515 kts | 111° |
| 2026-04-25 23:52 | 35.89859 | -120.93624 | 38965 ft | 513 kts | 111° |
| 2026-04-25 23:53 | 35.87553 | -120.85297 | 38973 ft | 514 kts | 111° |
| 2026-04-25 23:53 | 35.85260 | -120.77041 | 38979 ft | 511 kts | 111° |
| 2026-04-25 23:54 | 35.82946 | -120.68735 | 38981 ft | 511 kts | 111° |
| 2026-04-25 23:54 | 35.80621 | -120.60415 | 38982 ft | 513 kts | 111° |
| 2026-04-25 23:55 | 35.78293 | -120.52108 | 38980 ft | 513 kts | 111° |
| 2026-04-25 23:55 | 35.75958 | -120.43804 | 38980 ft | 514 kts | 111° |
| 2026-04-25 23:56 | 35.73616 | -120.35499 | 38972 ft | 512 kts | 111° |
| 2026-04-25 23:56 | 35.71271 | -120.27203 | 38968 ft | 512 kts | 112° |
| 2026-04-25 23:57 | 35.68919 | -120.18908 | 38949 ft | 511 kts | 112° |
| 2026-04-25 23:57 | 35.65753 | -120.11189 | 38949 ft | 499 kts | 135° |
| 2026-04-25 23:57 | 35.63214 | -120.08315 | 38948 ft | 493 kts | 147° |
| 2026-04-25 23:58 | 35.60403 | -120.05924 | 38940 ft | 492 kts | 152° |
| 2026-04-25 23:58 | 35.54594 | -120.01544 | 38948 ft | 490 kts | 154° |
| 2026-04-25 23:59 | 35.48681 | -119.97230 | 38587 ft | 511 kts | 154° |
| 2026-04-25 23:59 | 35.45631 | -119.94978 | 38007 ft | 507 kts | 153° |
| 2026-04-25 23:59 | 35.42628 | -119.92735 | 37414 ft | 503 kts | 153° |
| 2026-04-25 23:59 | 35.39673 | -119.90516 | 36840 ft | 497 kts | 153° |
| 2026-04-26 00:00 | 35.36741 | -119.88313 | 36306 ft | 489 kts | 153° |
| 2026-04-26 00:00 | 35.33860 | -119.86150 | 35787 ft | 484 kts | 153° |
| 2026-04-26 00:00 | 35.31002 | -119.84010 | 35208 ft | 482 kts | 153° |
| 2026-04-26 00:00 | 35.28213 | -119.81745 | 34618 ft | 486 kts | 146° |
| 2026-04-26 00:01 | 35.25586 | -119.79187 | 33985 ft | 491 kts | 146° |
| 2026-04-26 00:01 | 35.22882 | -119.76657 | 33454 ft | 487 kts | 146° |
| 2026-04-26 00:01 | 35.20183 | -119.74182 | 32958 ft | 482 kts | 147° |
| 2026-04-26 00:01 | 35.17497 | -119.71726 | 32358 ft | 486 kts | 146° |
| 2026-04-26 00:02 | 35.14768 | -119.69222 | 31736 ft | 490 kts | 146° |
| 2026-04-26 00:02 | 35.12049 | -119.66711 | 31204 ft | 489 kts | 146° |
| 2026-04-26 00:02 | 35.09356 | -119.64211 | 30661 ft | 483 kts | 146° |
| 2026-04-26 00:02 | 35.06684 | -119.61725 | 30150 ft | 480 kts | 146° |
| 2026-04-26 00:03 | 35.04032 | -119.59256 | 29656 ft | 477 kts | 146° |
| 2026-04-26 00:03 | 35.01401 | -119.56810 | 29150 ft | 474 kts | 145° |
| 2026-04-26 00:03 | 34.98793 | -119.54388 | 28629 ft | 470 kts | 145° |
| 2026-04-26 00:03 | 34.96202 | -119.51985 | 28107 ft | 467 kts | 145° |
| 2026-04-26 00:04 | 34.93646 | -119.49614 | 27741 ft | 453 kts | 145° |
| 2026-04-26 00:04 | 34.91170 | -119.47318 | 27327 ft | 443 kts | 145° |
| 2026-04-26 00:04 | 34.88710 | -119.45074 | 26832 ft | 440 kts | 146° |
| 2026-04-26 00:04 | 34.86256 | -119.42876 | 26318 ft | 436 kts | 146° |
| 2026-04-26 00:05 | 34.83825 | -119.40717 | 25810 ft | 432 kts | 146° |
| 2026-04-26 00:05 | 34.81398 | -119.38563 | 25308 ft | 429 kts | 146° |
| 2026-04-26 00:05 | 34.79001 | -119.36432 | 24793 ft | 427 kts | 146° |
| 2026-04-26 00:05 | 34.76625 | -119.34286 | 24267 ft | 425 kts | 146° |
| 2026-04-26 00:06 | 34.74264 | -119.32166 | 23727 ft | 421 kts | 147° |
| 2026-04-26 00:06 | 34.71905 | -119.30089 | 23239 ft | 417 kts | 147° |
| 2026-04-26 00:06 | 34.69555 | -119.28047 | 22973 ft | 412 kts | 147° |
| 2026-04-26 00:06 | 34.67213 | -119.26018 | 22917 ft | 413 kts | 147° |
| 2026-04-26 00:07 | 34.64866 | -119.23987 | 22919 ft | 413 kts | 147° |
| 2026-04-26 00:07 | 34.62514 | -119.21965 | 22919 ft | 410 kts | 147° |
| 2026-04-26 00:07 | 34.60160 | -119.19975 | 22922 ft | 412 kts | 147° |
| 2026-04-26 00:07 | 34.57805 | -119.17963 | 22571 ft | 415 kts | 146° |
| 2026-04-26 00:08 | 34.55478 | -119.15947 | 22135 ft | 409 kts | 146° |
| 2026-04-26 00:08 | 34.53189 | -119.13931 | 21629 ft | 404 kts | 145° |
| 2026-04-26 00:08 | 34.50960 | -119.11948 | 21137 ft | 401 kts | 145° |
| 2026-04-26 00:08 | 34.48690 | -119.09925 | 20620 ft | 397 kts | 145° |
| 2026-04-26 00:09 | 34.46501 | -119.07976 | 20121 ft | 394 kts | 145° |
| 2026-04-26 00:09 | 34.44299 | -119.06011 | 19590 ft | 392 kts | 145° |
| 2026-04-26 00:09 | 34.42114 | -119.04068 | 19079 ft | 388 kts | 145° |
| 2026-04-26 00:09 | 34.39946 | -119.02139 | 18567 ft | 386 kts | 145° |
| 2026-04-26 00:10 | 34.37797 | -119.00223 | 18056 ft | 382 kts | 145° |
| 2026-04-26 00:10 | 34.35661 | -118.98322 | 17558 ft | 379 kts | 145° |
| 2026-04-26 00:10 | 34.33540 | -118.96443 | 17055 ft | 376 kts | 145° |
| 2026-04-26 00:10 | 34.31434 | -118.94586 | 16568 ft | 373 kts | 145° |
| 2026-04-26 00:11 | 34.29344 | -118.92744 | 16076 ft | 370 kts | 145° |
| 2026-04-26 00:11 | 34.27272 | -118.90917 | 15593 ft | 366 kts | 145° |
| 2026-04-26 00:11 | 34.25217 | -118.89098 | 15122 ft | 364 kts | 144° |
| 2026-04-26 00:11 | 34.23254 | -118.87285 | 14934 ft | 346 kts | 143° |
| 2026-04-26 00:12 | 34.21404 | -118.85579 | 14631 ft | 328 kts | 143° |
| 2026-04-26 00:12 | 34.19599 | -118.83924 | 14033 ft | 325 kts | 143° |
| 2026-04-26 00:12 | 34.17809 | -118.82285 | 13438 ft | 320 kts | 143° |
| 2026-04-26 00:12 | 34.16067 | -118.80642 | 12834 ft | 317 kts | 139° |
| 2026-04-26 00:13 | 34.14465 | -118.78821 | 12231 ft | 314 kts | 137° |
| 2026-04-26 00:13 | 34.12885 | -118.77079 | 11827 ft | 302 kts | 138° |
| 2026-04-26 00:13 | 34.11340 | -118.75414 | 11432 ft | 300 kts | 138° |
| 2026-04-26 00:13 | 34.09771 | -118.73731 | 11093 ft | 295 kts | 138° |
| 2026-04-26 00:14 | 34.08271 | -118.72117 | 10772 ft | 291 kts | 138° |
| 2026-04-26 00:14 | 34.06774 | -118.70481 | 10407 ft | 290 kts | 139° |
| 2026-04-26 00:14 | 34.05311 | -118.68850 | 10024 ft | 283 kts | 140° |
| 2026-04-26 00:14 | 34.03918 | -118.67227 | 9769 ft | 280 kts | 131° |
| 2026-04-26 00:15 | 34.03019 | -118.65146 | 9471 ft | 283 kts | 108° |
| 2026-04-26 00:15 | 34.02634 | -118.62808 | 9270 ft | 286 kts | 101° |
| 2026-04-26 00:15 | 34.02363 | -118.60438 | 8957 ft | 285 kts | 98° |
| 2026-04-26 00:15 | 34.02139 | -118.58080 | 8631 ft | 282 kts | 98° |
| 2026-04-26 00:16 | 34.01930 | -118.55738 | 8323 ft | 281 kts | 98° |
| 2026-04-26 00:16 | 34.01724 | -118.53417 | 8086 ft | 274 kts | 98° |
| 2026-04-26 00:16 | 34.01526 | -118.51215 | 7944 ft | 254 kts | 98° |
| 2026-04-26 00:16 | 34.01336 | -118.49136 | 7719 ft | 246 kts | 98° |
| 2026-04-26 00:17 | 34.01147 | -118.47107 | 7342 ft | 242 kts | 98° |
| 2026-04-26 00:17 | 34.00861 | -118.45128 | 7042 ft | 237 kts | 112° |
| 2026-04-26 00:17 | 34.00149 | -118.43348 | 6971 ft | 233 kts | 120° |
| 2026-04-26 00:17 | 33.99365 | -118.41622 | 6917 ft | 235 kts | 122° |
| 2026-04-26 00:18 | 33.98558 | -118.39899 | 6520 ft | 236 kts | 122° |
| 2026-04-26 00:18 | 33.97751 | -118.38185 | 6199 ft | 233 kts | 122° |
| 2026-04-26 00:18 | 33.96946 | -118.36485 | 6192 ft | 234 kts | 122° |
| 2026-04-26 00:18 | 33.96137 | -118.34783 | 6207 ft | 234 kts | 122° |
| 2026-04-26 00:19 | 33.95296 | -118.33090 | 6164 ft | 237 kts | 122° |
| 2026-04-26 00:19 | 33.94413 | -118.31390 | 5970 ft | 238 kts | 122° |
| 2026-04-26 00:19 | 33.93527 | -118.29723 | 5685 ft | 235 kts | 122° |
| 2026-04-26 00:19 | 33.92647 | -118.28079 | 5400 ft | 232 kts | 122° |
| 2026-04-26 00:20 | 33.91788 | -118.26473 | 5012 ft | 231 kts | 122° |
| 2026-04-26 00:20 | 33.90909 | -118.24831 | 4634 ft | 230 kts | 122° |
| 2026-04-26 00:20 | 33.90091 | -118.23193 | 4252 ft | 228 kts | 112° |
| 2026-04-26 00:20 | 33.89809 | -118.21354 | 3872 ft | 222 kts | 87° |
| 2026-04-26 00:21 | 33.89930 | -118.19504 | 3748 ft | 221 kts | 83° |
| 2026-04-26 00:21 | 33.90104 | -118.17660 | 3784 ft | 220 kts | 82° |
| 2026-04-26 00:21 | 33.90290 | -118.15814 | 3604 ft | 223 kts | 81° |
| 2026-04-26 00:21 | 33.90789 | -118.14067 | 3267 ft | 219 kts | 56° |
| 2026-04-26 00:22 | 33.91927 | -118.12969 | 2939 ft | 216 kts | 14° |
| 2026-04-26 00:22 | 33.93332 | -118.13271 | 2754 ft | 202 kts | 324° |
| 2026-04-26 00:22 | 33.94072 | -118.14628 | 2555 ft | 193 kts | 294° |
| 2026-04-26 00:22 | 33.94574 | -118.16094 | 2213 ft | 188 kts | 292° |
| 2026-04-26 00:23 | 33.95054 | -118.17555 | 2028 ft | 186 kts | 292° |
| 2026-04-26 00:23 | 33.95481 | -118.19016 | 1940 ft | 185 kts | 282° |
| 2026-04-26 00:23 | 33.95546 | -118.20563 | 1940 ft | 186 kts | 267° |
| 2026-04-26 00:23 | 33.95423 | -118.22116 | 1950 ft | 185 kts | 263° |
| 2026-04-26 00:24 | 33.95253 | -118.23665 | 1955 ft | 186 kts | 263° |
| 2026-04-26 00:24 | 33.95086 | -118.25212 | 1948 ft | 183 kts | 263° |
| 2026-04-26 00:24 | 33.94934 | -118.26683 | 1944 ft | 171 kts | 263° |
| 2026-04-26 00:24 | 33.94788 | -118.28094 | 1830 ft | 168 kts | 263° |
| 2026-04-26 00:25 | 33.94645 | -118.29476 | 1585 ft | 165 kts | 263° |
| 2026-04-26 00:25 | 33.94504 | -118.30835 | 1377 ft | 160 kts | 263° |
| 2026-04-26 00:25 | 33.94370 | -118.32132 | 1137 ft | 153 kts | 263° |
| 2026-04-26 00:25 | 33.94240 | -118.33390 | 937 ft | 151 kts | 263° |
| 2026-04-26 00:26 | 33.94112 | -118.34633 | 724 ft | 149 kts | 263° |
| 2026-04-26 00:26 | 33.93985 | -118.35861 | 519 ft | 146 kts | 263° |
| 2026-04-26 00:26 | 33.93861 | -118.37064 | 326 ft | 146 kts | 263° |
| 2026-04-26 00:26 | 33.93735 | -118.38285 | 149 ft | 143 kts | 264° |
| 2026-04-26 00:27 | 33.93630 | -118.39339 | 128 ft | 102 kts | 261° |
| 2026-04-26 00:27 | 33.93565 | -118.39935 | 126 ft | 50 kts | 260° |
| 2026-04-26 00:27 | 33.93500 | -118.40151 | 127 ft | 11 kts | 238° |
| 2026-04-26 00:27 | 33.93434 | -118.40162 | 127 ft | 14 kts | 110° |
| 2026-04-26 00:28 | 33.93432 | -118.40035 | 127 ft | 16 kts | 82° |
| 2026-04-26 00:28 | 33.93447 | -118.39896 | 126 ft | 17 kts | 82° |
| 2026-04-26 00:28 | 33.93460 | -118.39749 | 128 ft | 18 kts | 84° |
| 2026-04-26 00:28 | 33.93474 | -118.39599 | 126 ft | 18 kts | 83° |
| 2026-04-26 00:29 | 33.93489 | -118.39450 | 130 ft | 13 kts | 83° |
| 2026-04-26 00:29 | 33.93497 | -118.39381 | 129 ft | 7 kts | 84° |
| 2026-04-26 00:29 | 33.93503 | -118.39311 | 128 ft | 10 kts | 82° |
| 2026-04-26 00:29 | 33.93514 | -118.39212 | 128 ft | 14 kts | 83° |
| 2026-04-26 00:30 | 33.93524 | -118.39121 | 125 ft | 7 kts | 83° |
| 2026-04-26 00:30 | 33.93520 | -118.39083 | 125 ft | 7 kts | 122° |
| 2026-04-26 00:30 | 33.93468 | -118.39060 | 128 ft | 9 kts | 180° |
| 2026-04-26 00:30 | 33.93415 | -118.39062 | 128 ft | 6 kts | 181° |
| 2026-04-26 00:31 | 33.93399 | -118.39062 | 128 ft | 0 kts | 181° |